Sunday, February 17, 2019, 8:08 PM GMT
Back to Local

CYQM, Moncton, N. B.

Location: , , Canada Lat: 46.117
Local Time: 8:08 PM GMT (20:08 GMT) Lon: -64.683
Time Zone: GMT Elev: 232 ft

Show me the last for .
Show Coded

Time T Td Feel RH Dir Speed Gust Alt SLP Vis Weather Sky Remarks
2019-02-17 19:00 23 3 8 41 290° 13 22 29.90 29.92 15 FEW220 None
2019-02-17 18:00 23 3 8 41 280° 13 21 29.91 29.92 15 FEW220 None
2019-02-17 17:00 21 3 5 44 260° 12 22 29.92 29.94 15 FEW220 None
2019-02-17 16:00 19 5 6 52 260° 14 - 29.93 29.95 15 CLR None
2019-02-17 15:00 18 5 1 57 260° 14 21 29.92 29.94 15 FEW025 None
2019-02-17 14:00 16 5 0 61 260° 17 - 29.90 29.92 15 FEW025 None
2019-02-17 13:00 14 5 -1 66 250° 14 - 29.90 29.92 15 FEW020 FEW250 None
2019-02-17 12:00 14 5 -5 66 260° 16 25 29.89 29.91 15 FEW020 FEW220 None
2019-02-17 11:00 14 5 -5 66 260° 17 23 29.85 29.87 15 FEW020 FEW220 None
2019-02-17 10:00 16 7 -3 66 270° 18 26 29.83 29.84 15 CLR None
2019-02-17 09:00 18 7 1 61 260° 20 - 29.79 29.80 13 CLR None
2019-02-17 08:00 19 9 1 62 260° 21 28 29.77 29.78 15 FEW029 None
2019-02-17 07:00 23 12 7 62 270° 17 25 29.73 29.75 15 FEW029 FEW045 None
2019-02-17 06:00 25 12 10 58 300° 21 - 29.71 29.73 15 FEW025 None
2019-02-17 05:00 27 19 14 73 270° 12 17 29.69 29.71 15 BKN025 None
2019-02-17 04:00 27 21 16 79 260° 13 - 29.68 29.70 15 FEW027 FEW043 None
2019-02-17 03:00 28 21 15 74 260° 14 20 29.66 29.67 15 FEW044 None
2019-02-17 02:00 28 21 17 74 250° 14 - 29.64 29.65 15 SCT045 None
2019-02-17 01:00 30 21 20 68 250° 13 - 29.62 29.64 15 BKN042 None
2019-02-17 00:00 30 19 20 63 280° 14 - 29.62 29.63 15 OVC036 None
2019-02-16 23:00 32 23 20 68 290° 14 21 29.61 29.62 15 OVC030 None
2019-02-16 22:00 32 25 20 74 290° 14 21 29.58 29.59 15 BKN025 Virga in the vinicity
2019-02-16 21:00 34 27 26 74 270° 10 - 29.55 29.57 15 BKN030 BKN055 None

Support USWX by starting your Amazon purchase here.